createdAt,value
2019-05-12T12:09:59.520Z,9.75
2019-05-12T12:12:29.444Z,7.90
2019-05-12T12:17:32.612Z,6.53
2019-05-12T12:20:00.672Z,5.50
2019-05-12T12:22:30.155Z,5.55
2019-05-12T12:25:05.138Z,4.90
2019-05-12T12:27:31.156Z,4.17
2019-05-12T12:30:13.649Z,3.65
2019-05-12T12:32:33.898Z,3.52
2019-05-12T12:35:08.935Z,3.33
2019-05-12T12:37:33.181Z,3.50
2019-05-12T12:40:04.247Z,3.10
2019-05-12T12:42:37.005Z,2.52
2019-05-12T12:45:04.282Z,2.72
2019-05-12T12:47:37.993Z,2.75
2019-05-12T12:50:04.693Z,2.75
2019-05-12T12:52:38.683Z,2.62
2019-05-12T12:55:08.316Z,2.47
2019-05-12T12:57:35.115Z,2.30
2019-05-12T13:02:39.151Z,2.12
2019-05-12T13:07:43.956Z,2.10
2019-05-12T13:10:14.312Z,2.27
2019-05-12T13:12:45.097Z,1.72
2019-05-12T13:15:14.535Z,1.85
2019-05-12T13:17:44.926Z,1.47
2019-05-12T13:20:14.132Z,1.60
2019-05-12T13:22:44.437Z,1.57
2019-05-12T13:25:15.094Z,1.30
2019-05-12T13:27:44.402Z,1.80
2019-05-12T13:30:19.721Z,1.50
2019-05-12T13:32:44.537Z,1.62
2019-05-12T13:35:16.208Z,1.40
2019-05-12T13:37:50.295Z,1.50
2019-05-12T13:40:20.267Z,1.55
2019-05-12T13:42:49.872Z,1.57
2019-05-12T13:45:19.573Z,1.30
2019-05-12T13:47:53.497Z,2.87
2019-05-12T13:50:26.205Z,4.50
2019-05-12T13:55:24.065Z,1.10
2019-05-12T13:57:57.535Z,1.22
2019-05-12T14:02:55.598Z,1.20
2019-05-12T14:07:55.780Z,1.70
2019-05-12T14:10:24.563Z,1.25
2019-05-12T14:12:59.365Z,1.40
2019-05-12T14:15:28.407Z,1.85
2019-05-12T14:17:57.441Z,2.10
2019-05-12T14:20:26.611Z,2.55
2019-05-12T14:22:56.635Z,1.80
2019-05-12T14:25:31.004Z,2.50
2019-05-12T14:27:59.276Z,2.62
2019-05-12T14:30:26.938Z,2.47
2019-05-12T14:32:59.132Z,2.23
2019-05-12T14:35:32.718Z,2.52
2019-05-12T14:40:31.289Z,2.10
2019-05-12T14:45:29.852Z,2.12
2019-05-12T14:47:59.992Z,2.30
2019-05-12T14:50:47.518Z,2.00
2019-05-12T14:53:16.135Z,2.08
2019-05-12T14:55:44.927Z,2.10
2019-05-12T14:58:33.729Z,1.80
2019-05-12T15:01:03.881Z,1.70
2019-05-12T15:07:20.547Z,1.85
2019-05-12T15:14:24.519Z,1.55
2019-05-12T15:16:51.250Z,1.80
2019-05-12T15:19:27.805Z,1.23
